sensor_id;sensor_type;location;lat;lon;timestamp;P1;durP1;ratioP1;P2;durP2;ratioP2
79173;SDS011;68599;49.142;9.124;2024-01-11T00:00:29;18.30;;;6.70;;
79173;SDS011;68599;49.142;9.124;2024-01-11T00:02:56;10.90;;;4.20;;
79173;SDS011;68599;49.142;9.124;2024-01-11T00:05:23;19.90;;;7.30;;
79173;SDS011;68599;49.142;9.124;2024-01-11T00:07:49;18.60;;;7.20;;
79173;SDS011;68599;49.142;9.124;2024-01-11T00:10:16;20.50;;;6.70;;
79173;SDS011;68599;49.142;9.124;2024-01-11T00:12:43;17.90;;;6.70;;
79173;SDS011;68599;49.142;9.124;2024-01-11T00:15:10;7.30;;;2.60;;
79173;SDS011;68599;49.142;9.124;2024-01-11T00:17:37;17.00;;;6.10;;
79173;SDS011;68599;49.142;9.124;2024-01-11T00:20:04;21.10;;;7.00;;
79173;SDS011;68599;49.142;9.124;2024-01-11T00:24:58;19.30;;;6.30;;
79173;SDS011;68599;49.142;9.124;2024-01-11T00:27:25;12.60;;;4.60;;
79173;SDS011;68599;49.142;9.124;2024-01-11T00:29:53;22.50;;;6.80;;
79173;SDS011;68599;49.142;9.124;2024-01-11T00:32:20;13.20;;;5.20;;
79173;SDS011;68599;49.142;9.124;2024-01-11T00:34:47;14.10;;;5.20;;
79173;SDS011;68599;49.142;9.124;2024-01-11T00:37:14;20.80;;;7.60;;
79173;SDS011;68599;49.142;9.124;2024-01-11T00:39:41;18.30;;;6.50;;
79173;SDS011;68599;49.142;9.124;2024-01-11T00:42:07;23.70;;;7.10;;
79173;SDS011;68599;49.142;9.124;2024-01-11T00:44:34;22.10;;;7.00;;
79173;SDS011;68599;49.142;9.124;2024-01-11T00:47:00;16.70;;;6.10;;
79173;SDS011;68599;49.142;9.124;2024-01-11T00:49:27;17.80;;;7.00;;
79173;SDS011;68599;49.142;9.124;2024-01-11T00:51:54;20.10;;;7.50;;
79173;SDS011;68599;49.142;9.124;2024-01-11T00:54:20;18.40;;;6.30;;
79173;SDS011;68599;49.142;9.124;2024-01-11T00:56:47;18.60;;;6.40;;
79173;SDS011;68599;49.142;9.124;2024-01-11T00:59:14;19.40;;;6.60;;
79173;SDS011;68599;49.142;9.124;2024-01-11T01:01:40;19.70;;;6.80;;
79173;SDS011;68599;49.142;9.124;2024-01-11T01:04:13;16.30;;;6.00;;
79173;SDS011;68599;49.142;9.124;2024-01-11T01:06:40;18.20;;;6.40;;
79173;SDS011;68599;49.142;9.124;2024-01-11T01:09:07;18.50;;;6.50;;
79173;SDS011;68599;49.142;9.124;2024-01-11T01:11:34;8.30;;;3.80;;
79173;SDS011;68599;49.142;9.124;2024-01-11T01:14:01;15.40;;;6.20;;
79173;SDS011;68599;49.142;9.124;2024-01-11T01:16:27;17.10;;;6.70;;
79173;SDS011;68599;49.142;9.124;2024-01-11T01:18:54;18.20;;;6.10;;
79173;SDS011;68599;49.142;9.124;2024-01-11T01:21:21;17.60;;;6.50;;
79173;SDS011;68599;49.142;9.124;2024-01-11T01:23:47;15.80;;;5.80;;
79173;SDS011;68599;49.142;9.124;2024-01-11T01:26:14;19.50;;;6.60;;
79173;SDS011;68599;49.142;9.124;2024-01-11T01:28:40;21.60;;;6.60;;
79173;SDS011;68599;49.142;9.124;2024-01-11T01:31:07;17.60;;;6.00;;
79173;SDS011;68599;49.142;9.124;2024-01-11T01:33:34;20.60;;;6.50;;
79173;SDS011;68599;49.142;9.124;2024-01-11T01:36:01;17.00;;;6.20;;
79173;SDS011;68599;49.142;9.124;2024-01-11T01:38:28;16.90;;;6.60;;
79173;SDS011;68599;49.142;9.124;2024-01-11T01:40:57;20.00;;;6.50;;
79173;SDS011;68599;49.142;9.124;2024-01-11T01:43:23;19.40;;;7.00;;
79173;SDS011;68599;49.142;9.124;2024-01-11T01:45:50;14.80;;;5.80;;
79173;SDS011;68599;49.142;9.124;2024-01-11T01:48:17;19.50;;;6.70;;
79173;SDS011;68599;49.142;9.124;2024-01-11T01:50:45;18.30;;;6.40;;
79173;SDS011;68599;49.142;9.124;2024-01-11T01:53:20;17.80;;;6.30;;
79173;SDS011;68599;49.142;9.124;2024-01-11T01:55:49;18.50;;;6.50;;
79173;SDS011;68599;49.142;9.124;2024-01-11T01:58:16;18.50;;;6.10;;
79173;SDS011;68599;49.142;9.124;2024-01-11T02:00:45;18.70;;;6.90;;
79173;SDS011;68599;49.142;9.124;2024-01-11T02:03:14;14.60;;;5.40;;
79173;SDS011;68599;49.142;9.124;2024-01-11T02:05:42;8.80;;;3.40;;
79173;SDS011;68599;49.142;9.124;2024-01-11T02:08:12;18.20;;;7.30;;
79173;SDS011;68599;49.142;9.124;2024-01-11T02:10:42;18.70;;;7.00;;
79173;SDS011;68599;49.142;9.124;2024-01-11T02:13:09;16.20;;;6.40;;
79173;SDS011;68599;49.142;9.124;2024-01-11T02:18:04;19.70;;;7.30;;
79173;SDS011;68599;49.142;9.124;2024-01-11T02:20:31;22.90;;;7.70;;
79173;SDS011;68599;49.142;9.124;2024-01-11T02:23:00;19.60;;;7.10;;
79173;SDS011;68599;49.142;9.124;2024-01-11T02:25:31;20.30;;;6.80;;
79173;SDS011;68599;49.142;9.124;2024-01-11T02:27:58;17.30;;;6.30;;
79173;SDS011;68599;49.142;9.124;2024-01-11T02:30:24;19.80;;;6.30;;
79173;SDS011;68599;49.142;9.124;2024-01-11T02:32:51;22.00;;;7.50;;
79173;SDS011;68599;49.142;9.124;2024-01-11T02:35:19;18.60;;;6.30;;
79173;SDS011;68599;49.142;9.124;2024-01-11T02:37:46;12.30;;;4.30;;
79173;SDS011;68599;49.142;9.124;2024-01-11T02:40:13;18.40;;;6.10;;
79173;SDS011;68599;49.142;9.124;2024-01-11T02:42:41;16.80;;;6.70;;
79173;SDS011;68599;49.142;9.124;2024-01-11T02:45:08;18.30;;;7.00;;
79173;SDS011;68599;49.142;9.124;2024-01-11T02:47:37;15.90;;;6.90;;
79173;SDS011;68599;49.142;9.124;2024-01-11T02:50:05;17.70;;;6.50;;
79173;SDS011;68599;49.142;9.124;2024-01-11T02:52:34;11.00;;;3.50;;
79173;SDS011;68599;49.142;9.124;2024-01-11T02:55:00;10.10;;;3.80;;
79173;SDS011;68599;49.142;9.124;2024-01-11T02:57:27;16.40;;;7.00;;
79173;SDS011;68599;49.142;9.124;2024-01-11T02:59:54;17.60;;;6.50;;
79173;SDS011;68599;49.142;9.124;2024-01-11T03:02:20;21.10;;;7.20;;
79173;SDS011;68599;49.142;9.124;2024-01-11T03:04:47;17.80;;;6.60;;
79173;SDS011;68599;49.142;9.124;2024-01-11T03:07:14;14.20;;;5.20;;
79173;SDS011;68599;49.142;9.124;2024-01-11T03:09:41;18.50;;;6.40;;
79173;SDS011;68599;49.142;9.124;2024-01-11T03:12:07;21.10;;;7.90;;
79173;SDS011;68599;49.142;9.124;2024-01-11T03:14:34;21.10;;;6.30;;
79173;SDS011;68599;49.142;9.124;2024-01-11T03:17:00;19.30;;;7.20;;
79173;SDS011;68599;49.142;9.124;2024-01-11T03:19:28;20.00;;;6.40;;
79173;SDS011;68599;49.142;9.124;2024-01-11T03:21:55;20.10;;;6.00;;
79173;SDS011;68599;49.142;9.124;2024-01-11T03:24:21;17.70;;;6.50;;
79173;SDS011;68599;49.142;9.124;2024-01-11T03:26:48;20.10;;;6.70;;
79173;SDS011;68599;49.142;9.124;2024-01-11T03:29:15;17.90;;;7.00;;
79173;SDS011;68599;49.142;9.124;2024-01-11T03:31:42;20.20;;;6.20;;
79173;SDS011;68599;49.142;9.124;2024-01-11T03:34:11;17.50;;;6.40;;
79173;SDS011;68599;49.142;9.124;2024-01-11T03:36:38;14.40;;;5.10;;
79173;SDS011;68599;49.142;9.124;2024-01-11T03:39:06;18.20;;;6.40;;
79173;SDS011;68599;49.142;9.124;2024-01-11T03:41:33;17.60;;;6.70;;
79173;SDS011;68599;49.142;9.124;2024-01-11T03:44:00;16.70;;;6.20;;
79173;SDS011;68599;49.142;9.124;2024-01-11T03:46:27;20.00;;;7.00;;
79173;SDS011;68599;49.142;9.124;2024-01-11T03:48:54;14.90;;;6.40;;
79173;SDS011;68599;49.142;9.124;2024-01-11T03:51:22;19.80;;;6.90;;
79173;SDS011;68599;49.142;9.124;2024-01-11T03:53:48;18.60;;;7.40;;
79173;SDS011;68599;49.142;9.124;2024-01-11T03:56:15;15.50;;;6.30;;
79173;SDS011;68599;49.142;9.124;2024-01-11T03:58:42;19.10;;;6.20;;
79173;SDS011;68599;49.142;9.124;2024-01-11T04:01:11;20.00;;;8.00;;
79173;SDS011;68599;49.142;9.124;2024-01-11T04:03:37;20.00;;;7.10;;
79173;SDS011;68599;49.142;9.124;2024-01-11T04:06:04;18.00;;;7.40;;
79173;SDS011;68599;49.142;9.124;2024-01-11T04:08:31;19.80;;;6.60;;
79173;SDS011;68599;49.142;9.124;2024-01-11T04:11:01;17.70;;;6.00;;
79173;SDS011;68599;49.142;9.124;2024-01-11T04:13:29;18.30;;;6.90;;
79173;SDS011;68599;49.142;9.124;2024-01-11T04:15:55;17.80;;;6.40;;
79173;SDS011;68599;49.142;9.124;2024-01-11T04:18:22;19.20;;;6.90;;
79173;SDS011;68599;49.142;9.124;2024-01-11T04:20:49;17.00;;;6.30;;
79173;SDS011;68599;49.142;9.124;2024-01-11T04:23:15;21.30;;;7.00;;
79173;SDS011;68599;49.142;9.124;2024-01-11T04:25:42;18.80;;;6.90;;
79173;SDS011;68599;49.142;9.124;2024-01-11T04:28:08;18.50;;;6.20;;
79173;SDS011;68599;49.142;9.124;2024-01-11T04:30:36;26.60;;;7.10;;
79173;SDS011;68599;49.142;9.124;2024-01-11T04:33:02;16.10;;;6.20;;
79173;SDS011;68599;49.142;9.124;2024-01-11T04:35:30;17.90;;;7.30;;
79173;SDS011;68599;49.142;9.124;2024-01-11T04:37:56;17.00;;;6.60;;
79173;SDS011;68599;49.142;9.124;2024-01-11T04:40:23;17.30;;;6.50;;
79173;SDS011;68599;49.142;9.124;2024-01-11T04:42:49;20.00;;;6.40;;
79173;SDS011;68599;49.142;9.124;2024-01-11T04:45:16;17.90;;;6.80;;
79173;SDS011;68599;49.142;9.124;2024-01-11T04:47:42;17.70;;;6.50;;
79173;SDS011;68599;49.142;9.124;2024-01-11T04:50:10;19.10;;;6.70;;
79173;SDS011;68599;49.142;9.124;2024-01-11T04:52:36;16.10;;;6.60;;
79173;SDS011;68599;49.142;9.124;2024-01-11T04:55:03;18.40;;;6.30;;
79173;SDS011;68599;49.142;9.124;2024-01-11T04:57:31;16.70;;;6.40;;
79173;SDS011;68599;49.142;9.124;2024-01-11T04:59:57;18.80;;;6.70;;
79173;SDS011;68599;49.142;9.124;2024-01-11T05:02:28;18.30;;;6.60;;
79173;SDS011;68599;49.142;9.124;2024-01-11T05:04:55;16.80;;;6.30;;
79173;SDS011;68599;49.142;9.124;2024-01-11T05:07:22;18.00;;;6.50;;
79173;SDS011;68599;49.142;9.124;2024-01-11T05:09:48;21.60;;;7.00;;
79173;SDS011;68599;49.142;9.124;2024-01-11T05:12:15;19.30;;;6.80;;
79173;SDS011;68599;49.142;9.124;2024-01-11T05:14:42;17.70;;;6.50;;
79173;SDS011;68599;49.142;9.124;2024-01-11T05:17:09;19.90;;;7.40;;
79173;SDS011;68599;49.142;9.124;2024-01-11T05:19:36;17.40;;;6.60;;
79173;SDS011;68599;49.142;9.124;2024-01-11T05:22:02;18.40;;;6.30;;
79173;SDS011;68599;49.142;9.124;2024-01-11T05:24:29;20.70;;;7.50;;
79173;SDS011;68599;49.142;9.124;2024-01-11T05:26:56;23.20;;;7.60;;
79173;SDS011;68599;49.142;9.124;2024-01-11T05:29:22;23.50;;;8.40;;
79173;SDS011;68599;49.142;9.124;2024-01-11T05:31:49;23.20;;;8.20;;
79173;SDS011;68599;49.142;9.124;2024-01-11T05:34:16;21.40;;;7.20;;
79173;SDS011;68599;49.142;9.124;2024-01-11T05:36:42;9.20;;;4.20;;
79173;SDS011;68599;49.142;9.124;2024-01-11T05:39:09;18.80;;;6.50;;
79173;SDS011;68599;49.142;9.124;2024-01-11T05:41:36;21.00;;;7.00;;
79173;SDS011;68599;49.142;9.124;2024-01-11T05:44:02;22.60;;;6.80;;
79173;SDS011;68599;49.142;9.124;2024-01-11T05:48:59;20.70;;;7.30;;
79173;SDS011;68599;49.142;9.124;2024-01-11T05:51:26;10.70;;;3.80;;
79173;SDS011;68599;49.142;9.124;2024-01-11T05:53:53;21.50;;;6.60;;
79173;SDS011;68599;49.142;9.124;2024-01-11T05:56:20;19.60;;;6.70;;
79173;SDS011;68599;49.142;9.124;2024-01-11T05:58:47;17.10;;;6.90;;
79173;SDS011;68599;49.142;9.124;2024-01-11T06:01:13;18.40;;;7.40;;
79173;SDS011;68599;49.142;9.124;2024-01-11T06:03:41;17.70;;;7.10;;
79173;SDS011;68599;49.142;9.124;2024-01-11T06:06:07;17.60;;;6.90;;
79173;SDS011;68599;49.142;9.124;2024-01-11T06:08:35;20.30;;;7.40;;
79173;SDS011;68599;49.142;9.124;2024-01-11T06:11:02;21.70;;;7.90;;
79173;SDS011;68599;49.142;9.124;2024-01-11T06:13:30;22.40;;;7.50;;
79173;SDS011;68599;49.142;9.124;2024-01-11T06:15:57;23.90;;;7.90;;
79173;SDS011;68599;49.142;9.124;2024-01-11T06:18:24;20.30;;;6.90;;
79173;SDS011;68599;49.142;9.124;2024-01-11T06:20:50;22.70;;;8.70;;
79173;SDS011;68599;49.142;9.124;2024-01-11T06:23:17;21.10;;;7.40;;
79173;SDS011;68599;49.142;9.124;2024-01-11T06:25:46;19.10;;;7.20;;
79173;SDS011;68599;49.142;9.124;2024-01-11T06:28:12;21.30;;;7.60;;
79173;SDS011;68599;49.142;9.124;2024-01-11T06:30:39;20.10;;;7.30;;
79173;SDS011;68599;49.142;9.124;2024-01-11T06:33:06;20.40;;;6.40;;
79173;SDS011;68599;49.142;9.124;2024-01-11T06:35:33;18.30;;;6.40;;
79173;SDS011;68599;49.142;9.124;2024-01-11T06:38:00;18.60;;;6.80;;
79173;SDS011;68599;49.142;9.124;2024-01-11T06:40:27;23.30;;;7.40;;
79173;SDS011;68599;49.142;9.124;2024-01-11T06:42:53;19.60;;;7.00;;
79173;SDS011;68599;49.142;9.124;2024-01-11T06:45:20;18.80;;;7.20;;
79173;SDS011;68599;49.142;9.124;2024-01-11T06:47:47;25.10;;;7.40;;
79173;SDS011;68599;49.142;9.124;2024-01-11T06:50:15;19.60;;;7.30;;
79173;SDS011;68599;49.142;9.124;2024-01-11T06:52:42;13.10;;;4.10;;
79173;SDS011;68599;49.142;9.124;2024-01-11T06:55:09;21.70;;;7.60;;
79173;SDS011;68599;49.142;9.124;2024-01-11T07:00:04;23.10;;;8.00;;
79173;SDS011;68599;49.142;9.124;2024-01-11T07:02:33;22.50;;;7.60;;
79173;SDS011;68599;49.142;9.124;2024-01-11T07:05:00;23.60;;;7.50;;
79173;SDS011;68599;49.142;9.124;2024-01-11T07:07:27;20.80;;;6.50;;
79173;SDS011;68599;49.142;9.124;2024-01-11T07:09:53;15.90;;;6.60;;
79173;SDS011;68599;49.142;9.124;2024-01-11T07:12:22;23.40;;;8.70;;
79173;SDS011;68599;49.142;9.124;2024-01-11T07:14:48;17.10;;;7.80;;
79173;SDS011;68599;49.142;9.124;2024-01-11T07:17:15;22.90;;;8.00;;
79173;SDS011;68599;49.142;9.124;2024-01-11T07:19:42;20.60;;;7.50;;
79173;SDS011;68599;49.142;9.124;2024-01-11T07:22:09;21.80;;;7.20;;
79173;SDS011;68599;49.142;9.124;2024-01-11T07:24:36;16.90;;;6.40;;
79173;SDS011;68599;49.142;9.124;2024-01-11T07:27:04;18.60;;;7.40;;
79173;SDS011;68599;49.142;9.124;2024-01-11T07:29:32;25.50;;;7.60;;
79173;SDS011;68599;49.142;9.124;2024-01-11T07:32:00;24.30;;;7.90;;
79173;SDS011;68599;49.142;9.124;2024-01-11T07:34:27;25.80;;;8.20;;
79173;SDS011;68599;49.142;9.124;2024-01-11T07:36:54;23.10;;;7.70;;
79173;SDS011;68599;49.142;9.124;2024-01-11T07:39:21;21.20;;;7.70;;
79173;SDS011;68599;49.142;9.124;2024-01-11T07:41:48;23.00;;;8.10;;
79173;SDS011;68599;49.142;9.124;2024-01-11T07:44:15;18.50;;;7.40;;
79173;SDS011;68599;49.142;9.124;2024-01-11T07:46:42;20.00;;;7.20;;
79173;SDS011;68599;49.142;9.124;2024-01-11T07:49:19;21.90;;;8.10;;
79173;SDS011;68599;49.142;9.124;2024-01-11T07:51:47;20.40;;;7.70;;
79173;SDS011;68599;49.142;9.124;2024-01-11T07:54:13;14.40;;;6.10;;
79173;SDS011;68599;49.142;9.124;2024-01-11T07:56:40;26.00;;;9.10;;
79173;SDS011;68599;49.142;9.124;2024-01-11T07:59:07;16.40;;;6.60;;
79173;SDS011;68599;49.142;9.124;2024-01-11T08:01:33;22.00;;;9.20;;
79173;SDS011;68599;49.142;9.124;2024-01-11T08:04:02;12.70;;;4.90;;
79173;SDS011;68599;49.142;9.124;2024-01-11T08:06:29;11.20;;;5.00;;
79173;SDS011;68599;49.142;9.124;2024-01-11T08:08:56;11.90;;;4.40;;
79173;SDS011;68599;49.142;9.124;2024-01-11T08:11:23;9.50;;;3.20;;
79173;SDS011;68599;49.142;9.124;2024-01-11T08:13:50;15.60;;;5.80;;
79173;SDS011;68599;49.142;9.124;2024-01-11T08:16:19;15.50;;;5.50;;
79173;SDS011;68599;49.142;9.124;2024-01-11T08:18:46;12.10;;;5.00;;
79173;SDS011;68599;49.142;9.124;2024-01-11T08:21:15;13.90;;;6.50;;
79173;SDS011;68599;49.142;9.124;2024-01-11T08:23:41;14.00;;;6.80;;
79173;SDS011;68599;49.142;9.124;2024-01-11T08:26:12;16.10;;;7.70;;
79173;SDS011;68599;49.142;9.124;2024-01-11T08:28:41;19.70;;;9.20;;
79173;SDS011;68599;49.142;9.124;2024-01-11T08:33:35;28.70;;;12.10;;
79173;SDS011;68599;49.142;9.124;2024-01-11T08:36:04;20.80;;;10.40;;
79173;SDS011;68599;49.142;9.124;2024-01-11T08:38:32;20.30;;;11.70;;
79173;SDS011;68599;49.142;9.124;2024-01-11T08:40:59;23.80;;;13.20;;
79173;SDS011;68599;49.142;9.124;2024-01-11T08:43:26;23.10;;;14.10;;
79173;SDS011;68599;49.142;9.124;2024-01-11T08:45:53;29.40;;;14.70;;
79173;SDS011;68599;49.142;9.124;2024-01-11T08:48:20;28.60;;;14.40;;
79173;SDS011;68599;49.142;9.124;2024-01-11T08:50:47;21.30;;;13.50;;
79173;SDS011;68599;49.142;9.124;2024-01-11T08:53:14;22.60;;;13.70;;
79173;SDS011;68599;49.142;9.124;2024-01-11T08:55:42;23.10;;;14.20;;
79173;SDS011;68599;49.142;9.124;2024-01-11T08:58:12;27.80;;;16.20;;
79173;SDS011;68599;49.142;9.124;2024-01-11T09:00:39;21.10;;;13.90;;
79173;SDS011;68599;49.142;9.124;2024-01-11T09:03:06;23.30;;;15.20;;
79173;SDS011;68599;49.142;9.124;2024-01-11T09:05:33;24.40;;;15.80;;
79173;SDS011;68599;49.142;9.124;2024-01-11T09:07:59;23.40;;;14.70;;
79173;SDS011;68599;49.142;9.124;2024-01-11T09:10:26;21.60;;;14.10;;
79173;SDS011;68599;49.142;9.124;2024-01-11T09:12:53;21.60;;;15.10;;
79173;SDS011;68599;49.142;9.124;2024-01-11T09:15:21;22.40;;;15.30;;
79173;SDS011;68599;49.142;9.124;2024-01-11T09:17:48;20.70;;;14.10;;
79173;SDS011;68599;49.142;9.124;2024-01-11T09:20:15;20.70;;;14.60;;
79173;SDS011;68599;49.142;9.124;2024-01-11T09:22:43;22.60;;;15.20;;
79173;SDS011;68599;49.142;9.124;2024-01-11T09:25:09;21.90;;;15.80;;
79173;SDS011;68599;49.142;9.124;2024-01-11T09:27:36;25.50;;;16.00;;
79173;SDS011;68599;49.142;9.124;2024-01-11T09:30:03;25.60;;;16.00;;
79173;SDS011;68599;49.142;9.124;2024-01-11T09:32:30;22.10;;;16.80;;
79173;SDS011;68599;49.142;9.124;2024-01-11T09:34:58;18.90;;;14.60;;
79173;SDS011;68599;49.142;9.124;2024-01-11T09:39:52;19.40;;;14.50;;
79173;SDS011;68599;49.142;9.124;2024-01-11T09:42:19;20.70;;;15.30;;
79173;SDS011;68599;49.142;9.124;2024-01-11T09:44:45;18.30;;;14.50;;
79173;SDS011;68599;49.142;9.124;2024-01-11T09:47:13;22.90;;;15.40;;
79173;SDS011;68599;49.142;9.124;2024-01-11T09:49:44;19.50;;;15.30;;
79173;SDS011;68599;49.142;9.124;2024-01-11T09:52:14;21.80;;;16.40;;
79173;SDS011;68599;49.142;9.124;2024-01-11T09:54:42;19.30;;;15.30;;
79173;SDS011;68599;49.142;9.124;2024-01-11T09:57:09;20.50;;;15.20;;
79173;SDS011;68599;49.142;9.124;2024-01-11T09:59:36;19.20;;;15.50;;
79173;SDS011;68599;49.142;9.124;2024-01-11T10:02:03;20.50;;;15.90;;
79173;SDS011;68599;49.142;9.124;2024-01-11T10:04:35;19.70;;;16.50;;
79173;SDS011;68599;49.142;9.124;2024-01-11T10:07:03;21.40;;;17.10;;
79173;SDS011;68599;49.142;9.124;2024-01-11T10:09:32;20.10;;;16.40;;
79173;SDS011;68599;49.142;9.124;2024-01-11T10:11:59;24.00;;;17.80;;
79173;SDS011;68599;49.142;9.124;2024-01-11T10:16:53;20.80;;;17.80;;
79173;SDS011;68599;49.142;9.124;2024-01-11T10:19:21;22.50;;;19.60;;
79173;SDS011;68599;49.142;9.124;2024-01-11T10:21:48;24.70;;;19.20;;
79173;SDS011;68599;49.142;9.124;2024-01-11T10:24:18;22.70;;;19.70;;
79173;SDS011;68599;49.142;9.124;2024-01-11T10:26:47;21.50;;;18.70;;
79173;SDS011;68599;49.142;9.124;2024-01-11T10:29:14;21.70;;;19.00;;
79173;SDS011;68599;49.142;9.124;2024-01-11T10:31:41;25.50;;;20.10;;
79173;SDS011;68599;49.142;9.124;2024-01-11T10:34:07;19.90;;;17.80;;
79173;SDS011;68599;49.142;9.124;2024-01-11T10:36:35;23.30;;;19.50;;
79173;SDS011;68599;49.142;9.124;2024-01-11T10:39:03;22.20;;;19.70;;
79173;SDS011;68599;49.142;9.124;2024-01-11T10:41:38;24.00;;;19.50;;
79173;SDS011;68599;49.142;9.124;2024-01-11T10:44:19;25.40;;;19.00;;
79173;SDS011;68599;49.142;9.124;2024-01-11T10:46:48;22.80;;;19.20;;
79173;SDS011;68599;49.142;9.124;2024-01-11T10:49:19;23.30;;;18.40;;
79173;SDS011;68599;49.142;9.124;2024-01-11T10:51:49;20.70;;;18.50;;
79173;SDS011;68599;49.142;9.124;2024-01-11T10:54:23;22.10;;;19.70;;
79173;SDS011;68599;49.142;9.124;2024-01-11T10:56:52;22.10;;;17.80;;
79173;SDS011;68599;49.142;9.124;2024-01-11T10:59:21;21.40;;;18.50;;
79173;SDS011;68599;49.142;9.124;2024-01-11T11:01:56;22.10;;;18.90;;
79173;SDS011;68599;49.142;9.124;2024-01-11T11:04:25;21.20;;;18.60;;
79173;SDS011;68599;49.142;9.124;2024-01-11T11:06:55;22.30;;;18.60;;
79173;SDS011;68599;49.142;9.124;2024-01-11T11:09:25;21.00;;;18.00;;
79173;SDS011;68599;49.142;9.124;2024-01-11T11:11:56;20.90;;;18.70;;
79173;SDS011;68599;49.142;9.124;2024-01-11T11:14:24;23.00;;;19.40;;
79173;SDS011;68599;49.142;9.124;2024-01-11T11:16:51;21.50;;;18.40;;
79173;SDS011;68599;49.142;9.124;2024-01-11T11:19:19;22.10;;;18.30;;
79173;SDS011;68599;49.142;9.124;2024-01-11T11:21:47;21.00;;;18.70;;
79173;SDS011;68599;49.142;9.124;2024-01-11T11:24:15;23.00;;;20.00;;
79173;SDS011;68599;49.142;9.124;2024-01-11T11:26:43;20.30;;;16.70;;
79173;SDS011;68599;49.142;9.124;2024-01-11T11:31:36;21.90;;;17.30;;
79173;SDS011;68599;49.142;9.124;2024-01-11T11:34:05;23.40;;;19.60;;
79173;SDS011;68599;49.142;9.124;2024-01-11T11:36:33;21.80;;;18.70;;
79173;SDS011;68599;49.142;9.124;2024-01-11T11:39:01;22.50;;;18.90;;
79173;SDS011;68599;49.142;9.124;2024-01-11T11:41:31;22.40;;;19.20;;
79173;SDS011;68599;49.142;9.124;2024-01-11T11:44:02;25.60;;;18.70;;
79173;SDS011;68599;49.142;9.124;2024-01-11T11:46:29;21.70;;;17.40;;
79173;SDS011;68599;49.142;9.124;2024-01-11T11:48:57;20.90;;;17.80;;
79173;SDS011;68599;49.142;9.124;2024-01-11T11:51:24;21.40;;;17.00;;
79173;SDS011;68599;49.142;9.124;2024-01-11T11:53:54;20.40;;;16.30;;
79173;SDS011;68599;49.142;9.124;2024-01-11T11:56:22;22.50;;;18.50;;
79173;SDS011;68599;49.142;9.124;2024-01-11T11:58:49;21.60;;;15.50;;
79173;SDS011;68599;49.142;9.124;2024-01-11T12:01:19;19.10;;;16.50;;
79173;SDS011;68599;49.142;9.124;2024-01-11T12:03:46;20.70;;;17.30;;
79173;SDS011;68599;49.142;9.124;2024-01-11T12:06:19;18.00;;;15.70;;
79173;SDS011;68599;49.142;9.124;2024-01-11T12:08:47;20.60;;;15.70;;
79173;SDS011;68599;49.142;9.124;2024-01-11T12:11:18;19.80;;;16.10;;
79173;SDS011;68599;49.142;9.124;2024-01-11T12:13:47;22.60;;;17.00;;
79173;SDS011;68599;49.142;9.124;2024-01-11T12:16:15;20.50;;;16.30;;
79173;SDS011;68599;49.142;9.124;2024-01-11T12:18:41;20.30;;;16.00;;
79173;SDS011;68599;49.142;9.124;2024-01-11T12:21:09;23.70;;;17.30;;
79173;SDS011;68599;49.142;9.124;2024-01-11T12:26:06;19.00;;;16.00;;
79173;SDS011;68599;49.142;9.124;2024-01-11T12:28:38;20.80;;;15.10;;
79173;SDS011;68599;49.142;9.124;2024-01-11T12:31:06;19.60;;;15.10;;
79173;SDS011;68599;49.142;9.124;2024-01-11T12:38:30;20.40;;;15.20;;
79173;SDS011;68599;49.142;9.124;2024-01-11T12:40:56;20.20;;;15.70;;
79173;SDS011;68599;49.142;9.124;2024-01-11T12:43:23;19.60;;;15.10;;
79173;SDS011;68599;49.142;9.124;2024-01-11T12:45:50;18.80;;;14.80;;
79173;SDS011;68599;49.142;9.124;2024-01-11T12:50:45;18.20;;;13.40;;
79173;SDS011;68599;49.142;9.124;2024-01-11T12:53:13;21.30;;;16.20;;
79173;SDS011;68599;49.142;9.124;2024-01-11T12:55:52;21.70;;;15.40;;
79173;SDS011;68599;49.142;9.124;2024-01-11T12:58:29;21.50;;;16.70;;
79173;SDS011;68599;49.142;9.124;2024-01-11T13:00:56;20.60;;;16.00;;
79173;SDS011;68599;49.142;9.124;2024-01-11T13:03:24;19.40;;;14.80;;
79173;SDS011;68599;49.142;9.124;2024-01-11T13:05:53;19.60;;;14.70;;
79173;SDS011;68599;49.142;9.124;2024-01-11T13:08:21;20.60;;;15.80;;
79173;SDS011;68599;49.142;9.124;2024-01-11T13:10:48;19.80;;;14.80;;
79173;SDS011;68599;49.142;9.124;2024-01-11T13:13:15;20.50;;;14.20;;
79173;SDS011;68599;49.142;9.124;2024-01-11T13:15:42;18.70;;;13.90;;
79173;SDS011;68599;49.142;9.124;2024-01-11T13:18:11;19.90;;;15.70;;
79173;SDS011;68599;49.142;9.124;2024-01-11T13:23:15;18.20;;;13.00;;
79173;SDS011;68599;49.142;9.124;2024-01-11T13:25:45;18.50;;;13.50;;
79173;SDS011;68599;49.142;9.124;2024-01-11T13:28:12;21.00;;;13.80;;
79173;SDS011;68599;49.142;9.124;2024-01-11T13:30:40;18.70;;;14.50;;
79173;SDS011;68599;49.142;9.124;2024-01-11T13:33:08;20.70;;;14.30;;
79173;SDS011;68599;49.142;9.124;2024-01-11T13:35:36;18.80;;;13.50;;
79173;SDS011;68599;49.142;9.124;2024-01-11T13:38:04;19.40;;;13.60;;
79173;SDS011;68599;49.142;9.124;2024-01-11T13:40:31;18.90;;;12.90;;
79173;SDS011;68599;49.142;9.124;2024-01-11T13:42:58;15.00;;;11.70;;
79173;SDS011;68599;49.142;9.124;2024-01-11T13:45:26;19.90;;;14.90;;
79173;SDS011;68599;49.142;9.124;2024-01-11T13:47:52;19.50;;;14.40;;
79173;SDS011;68599;49.142;9.124;2024-01-11T13:50:23;23.00;;;15.00;;
79173;SDS011;68599;49.142;9.124;2024-01-11T13:52:51;19.30;;;12.20;;
79173;SDS011;68599;49.142;9.124;2024-01-11T13:57:45;18.20;;;11.10;;
79173;SDS011;68599;49.142;9.124;2024-01-11T14:00:13;19.90;;;11.50;;
79173;SDS011;68599;49.142;9.124;2024-01-11T14:02:40;22.50;;;11.10;;
79173;SDS011;68599;49.142;9.124;2024-01-11T14:05:07;20.00;;;10.80;;
79173;SDS011;68599;49.142;9.124;2024-01-11T14:07:38;16.50;;;9.70;;
79173;SDS011;68599;49.142;9.124;2024-01-11T14:10:09;14.80;;;8.60;;
79173;SDS011;68599;49.142;9.124;2024-01-11T14:12:40;17.10;;;8.80;;
79173;SDS011;68599;49.142;9.124;2024-01-11T14:15:08;15.00;;;7.00;;
79173;SDS011;68599;49.142;9.124;2024-01-11T14:17:38;14.00;;;7.90;;
79173;SDS011;68599;49.142;9.124;2024-01-11T14:20:06;13.00;;;6.60;;
79173;SDS011;68599;49.142;9.124;2024-01-11T14:22:43;18.00;;;6.90;;
79173;SDS011;68599;49.142;9.124;2024-01-11T14:25:18;17.00;;;7.50;;
79173;SDS011;68599;49.142;9.124;2024-01-11T14:27:47;17.30;;;7.70;;
79173;SDS011;68599;49.142;9.124;2024-01-11T14:30:14;16.30;;;7.70;;
79173;SDS011;68599;49.142;9.124;2024-01-11T14:32:41;14.60;;;7.20;;
79173;SDS011;68599;49.142;9.124;2024-01-11T14:35:09;13.50;;;7.30;;
79173;SDS011;68599;49.142;9.124;2024-01-11T14:40:05;12.80;;;6.50;;
79173;SDS011;68599;49.142;9.124;2024-01-11T14:42:32;14.10;;;6.70;;
79173;SDS011;68599;49.142;9.124;2024-01-11T14:47:26;8.00;;;4.50;;
79173;SDS011;68599;49.142;9.124;2024-01-11T14:49:53;11.90;;;5.90;;
79173;SDS011;68599;49.142;9.124;2024-01-11T14:52:20;16.10;;;6.90;;
79173;SDS011;68599;49.142;9.124;2024-01-11T14:54:47;14.10;;;7.60;;
79173;SDS011;68599;49.142;9.124;2024-01-11T14:57:14;14.60;;;6.80;;
79173;SDS011;68599;49.142;9.124;2024-01-11T14:59:42;16.10;;;7.00;;
79173;SDS011;68599;49.142;9.124;2024-01-11T15:02:09;12.80;;;6.70;;
79173;SDS011;68599;49.142;9.124;2024-01-11T15:04:37;12.80;;;6.00;;
79173;SDS011;68599;49.142;9.124;2024-01-11T15:07:05;14.80;;;7.10;;
79173;SDS011;68599;49.142;9.124;2024-01-11T15:09:33;11.30;;;5.80;;
79173;SDS011;68599;49.142;9.124;2024-01-11T15:12:03;14.20;;;6.90;;